sensor_id;sensor_type;location;lat;lon;timestamp;temperature;humidity
26378;DHT22;14078;50.974;6.786;2024-03-22T00:01:44;10.50;99.90
26378;DHT22;14078;50.974;6.786;2024-03-22T00:04:09;10.60;99.90
26378;DHT22;14078;50.974;6.786;2024-03-22T00:06:36;10.60;98.70
26378;DHT22;14078;50.974;6.786;2024-03-22T00:09:02;10.60;94.00
26378;DHT22;14078;50.974;6.786;2024-03-22T00:11:29;10.70;85.30
26378;DHT22;14078;50.974;6.786;2024-03-22T00:13:54;10.80;53.70
26378;DHT22;14078;50.974;6.786;2024-03-22T00:16:21;10.70;45.20
26378;DHT22;14078;50.974;6.786;2024-03-22T00:18:48;10.70;46.40
26378;DHT22;14078;50.974;6.786;2024-03-22T00:21:15;10.70;47.60
26378;DHT22;14078;50.974;6.786;2024-03-22T00:23:40;10.70;48.80
26378;DHT22;14078;50.974;6.786;2024-03-22T00:26:07;10.70;55.20
26378;DHT22;14078;50.974;6.786;2024-03-22T00:28:33;10.70;59.20
26378;DHT22;14078;50.974;6.786;2024-03-22T00:30:59;10.70;67.60
26378;DHT22;14078;50.974;6.786;2024-03-22T00:33:25;10.60;91.30
26378;DHT22;14078;50.974;6.786;2024-03-22T00:35:53;10.60;96.40
26378;DHT22;14078;50.974;6.786;2024-03-22T00:38:19;10.60;99.90
26378;DHT22;14078;50.974;6.786;2024-03-22T00:40:45;10.60;99.90
26378;DHT22;14078;50.974;6.786;2024-03-22T00:43:11;10.50;99.90
26378;DHT22;14078;50.974;6.786;2024-03-22T00:45:38;10.60;99.90
26378;DHT22;14078;50.974;6.786;2024-03-22T00:48:04;10.50;99.90
26378;DHT22;14078;50.974;6.786;2024-03-22T00:50:31;10.50;99.90
26378;DHT22;14078;50.974;6.786;2024-03-22T00:52:58;10.50;99.90
26378;DHT22;14078;50.974;6.786;2024-03-22T00:55:25;10.50;99.90
26378;DHT22;14078;50.974;6.786;2024-03-22T00:57:51;10.40;99.90
26378;DHT22;14078;50.974;6.786;2024-03-22T01:00:18;10.40;99.90
26378;DHT22;14078;50.974;6.786;2024-03-22T01:02:44;10.40;99.90
26378;DHT22;14078;50.974;6.786;2024-03-22T01:05:11;10.40;99.90
26378;DHT22;14078;50.974;6.786;2024-03-22T01:07:37;10.40;99.90
26378;DHT22;14078;50.974;6.786;2024-03-22T01:10:06;10.40;99.90
26378;DHT22;14078;50.974;6.786;2024-03-22T01:12:31;10.50;99.90
26378;DHT22;14078;50.974;6.786;2024-03-22T01:14:58;10.50;99.90
26378;DHT22;14078;50.974;6.786;2024-03-22T01:17:24;10.50;99.90
26378;DHT22;14078;50.974;6.786;2024-03-22T01:19:51;10.60;99.90
26378;DHT22;14078;50.974;6.786;2024-03-22T01:22:17;10.60;99.90
26378;DHT22;14078;50.974;6.786;2024-03-22T01:24:44;10.60;99.90
26378;DHT22;14078;50.974;6.786;2024-03-22T01:27:12;10.60;99.90
26378;DHT22;14078;50.974;6.786;2024-03-22T01:29:38;10.70;98.40
26378;DHT22;14078;50.974;6.786;2024-03-22T01:32:05;10.70;91.20
26378;DHT22;14078;50.974;6.786;2024-03-22T01:34:31;10.70;72.30
26378;DHT22;14078;50.974;6.786;2024-03-22T01:36:58;10.80;49.50
26378;DHT22;14078;50.974;6.786;2024-03-22T01:39:25;10.80;38.80
26378;DHT22;14078;50.974;6.786;2024-03-22T01:41:51;10.80;25.10
26378;DHT22;14078;50.974;6.786;2024-03-22T01:44:19;10.80;27.00
26378;DHT22;14078;50.974;6.786;2024-03-22T01:46:45;10.90;22.00
26378;DHT22;14078;50.974;6.786;2024-03-22T01:49:15;10.90;21.90
26378;DHT22;14078;50.974;6.786;2024-03-22T01:51:42;10.80;24.40
26378;DHT22;14078;50.974;6.786;2024-03-22T01:54:09;10.80;24.90
26378;DHT22;14078;50.974;6.786;2024-03-22T01:56:36;10.80;34.60
26378;DHT22;14078;50.974;6.786;2024-03-22T01:59:04;10.80;43.00
26378;DHT22;14078;50.974;6.786;2024-03-22T02:01:31;10.70;38.40
26378;DHT22;14078;50.974;6.786;2024-03-22T02:03:58;10.70;36.00
26378;DHT22;14078;50.974;6.786;2024-03-22T02:06:24;10.60;36.90
26378;DHT22;14078;50.974;6.786;2024-03-22T02:08:51;10.60;45.90
26378;DHT22;14078;50.974;6.786;2024-03-22T02:11:16;10.60;63.10
26378;DHT22;14078;50.974;6.786;2024-03-22T02:13:44;10.60;70.80
26378;DHT22;14078;50.974;6.786;2024-03-22T02:16:10;10.60;78.70
26378;DHT22;14078;50.974;6.786;2024-03-22T02:18:38;10.60;90.00
26378;DHT22;14078;50.974;6.786;2024-03-22T02:21:04;10.60;93.80
26378;DHT22;14078;50.974;6.786;2024-03-22T02:23:34;10.60;98.30
26378;DHT22;14078;50.974;6.786;2024-03-22T02:25:59;10.60;96.40
26378;DHT22;14078;50.974;6.786;2024-03-22T02:28:26;10.60;86.80
26378;DHT22;14078;50.974;6.786;2024-03-22T02:30:52;10.60;91.10
26378;DHT22;14078;50.974;6.786;2024-03-22T02:33:19;10.70;91.40
26378;DHT22;14078;50.974;6.786;2024-03-22T02:35:46;10.70;91.60
26378;DHT22;14078;50.974;6.786;2024-03-22T02:38:13;10.60;90.60
26378;DHT22;14078;50.974;6.786;2024-03-22T02:40:40;10.60;90.00
26378;DHT22;14078;50.974;6.786;2024-03-22T02:43:06;10.70;92.50
26378;DHT22;14078;50.974;6.786;2024-03-22T02:45:32;10.60;88.70
26378;DHT22;14078;50.974;6.786;2024-03-22T02:47:59;10.60;88.40
26378;DHT22;14078;50.974;6.786;2024-03-22T02:50:26;10.70;91.40
26378;DHT22;14078;50.974;6.786;2024-03-22T02:52:51;10.70;83.50
26378;DHT22;14078;50.974;6.786;2024-03-22T02:55:18;10.70;71.90
26378;DHT22;14078;50.974;6.786;2024-03-22T02:57:45;10.80;79.00
26378;DHT22;14078;50.974;6.786;2024-03-22T03:00:12;10.90;52.60
26378;DHT22;14078;50.974;6.786;2024-03-22T03:02:38;10.90;34.00
26378;DHT22;14078;50.974;6.786;2024-03-22T03:05:05;11.00;23.70
26378;DHT22;14078;50.974;6.786;2024-03-22T03:07:31;11.00;1.00
26378;DHT22;14078;50.974;6.786;2024-03-22T03:09:58;11.00;9.00
26378;DHT22;14078;50.974;6.786;2024-03-22T03:12:24;10.90;30.80
26378;DHT22;14078;50.974;6.786;2024-03-22T03:14:51;10.90;40.00
26378;DHT22;14078;50.974;6.786;2024-03-22T03:17:17;10.90;46.40
26378;DHT22;14078;50.974;6.786;2024-03-22T03:19:44;10.90;65.90
26378;DHT22;14078;50.974;6.786;2024-03-22T03:22:10;10.80;70.90
26378;DHT22;14078;50.974;6.786;2024-03-22T03:24:36;10.70;78.80
26378;DHT22;14078;50.974;6.786;2024-03-22T03:27:02;10.70;90.00
26378;DHT22;14078;50.974;6.786;2024-03-22T03:29:29;10.70;99.90
26378;DHT22;14078;50.974;6.786;2024-03-22T03:31:56;10.70;99.90
26378;DHT22;14078;50.974;6.786;2024-03-22T03:34:23;10.60;99.90
26378;DHT22;14078;50.974;6.786;2024-03-22T03:36:48;10.60;99.90
26378;DHT22;14078;50.974;6.786;2024-03-22T03:39:15;10.60;99.90
26378;DHT22;14078;50.974;6.786;2024-03-22T03:41:41;10.60;99.90
26378;DHT22;14078;50.974;6.786;2024-03-22T03:44:07;10.50;99.90
26378;DHT22;14078;50.974;6.786;2024-03-22T03:46:33;10.50;99.90
26378;DHT22;14078;50.974;6.786;2024-03-22T03:49:01;10.50;99.90
26378;DHT22;14078;50.974;6.786;2024-03-22T03:51:27;10.50;99.90
26378;DHT22;14078;50.974;6.786;2024-03-22T03:53:53;10.50;99.90
26378;DHT22;14078;50.974;6.786;2024-03-22T03:56:19;10.50;99.90
26378;DHT22;14078;50.974;6.786;2024-03-22T03:58:46;10.50;99.90
26378;DHT22;14078;50.974;6.786;2024-03-22T04:01:11;10.50;99.90
26378;DHT22;14078;50.974;6.786;2024-03-22T04:03:38;10.50;99.90
26378;DHT22;14078;50.974;6.786;2024-03-22T04:06:05;10.50;99.90
26378;DHT22;14078;50.974;6.786;2024-03-22T04:08:32;10.40;99.90
26378;DHT22;14078;50.974;6.786;2024-03-22T04:10:58;10.40;99.90
26378;DHT22;14078;50.974;6.786;2024-03-22T04:13:26;10.40;99.90
26378;DHT22;14078;50.974;6.786;2024-03-22T04:15:51;10.40;99.90
26378;DHT22;14078;50.974;6.786;2024-03-22T04:18:18;10.40;99.90
26378;DHT22;14078;50.974;6.786;2024-03-22T04:20:53;10.30;99.90
26378;DHT22;14078;50.974;6.786;2024-03-22T04:23:22;10.30;99.90
26378;DHT22;14078;50.974;6.786;2024-03-22T04:25:52;10.20;99.90
26378;DHT22;14078;50.974;6.786;2024-03-22T04:28:19;10.30;99.90
26378;DHT22;14078;50.974;6.786;2024-03-22T04:30:54;10.20;99.90
26378;DHT22;14078;50.974;6.786;2024-03-22T04:33:21;10.20;99.90
26378;DHT22;14078;50.974;6.786;2024-03-22T04:35:46;10.10;99.90
26378;DHT22;14078;50.974;6.786;2024-03-22T04:38:13;10.10;99.90
26378;DHT22;14078;50.974;6.786;2024-03-22T04:40:42;10.20;99.90
26378;DHT22;14078;50.974;6.786;2024-03-22T04:43:09;10.20;99.90
26378;DHT22;14078;50.974;6.786;2024-03-22T04:45:35;10.20;99.90
26378;DHT22;14078;50.974;6.786;2024-03-22T04:48:02;10.10;99.90
26378;DHT22;14078;50.974;6.786;2024-03-22T04:50:28;10.20;99.90
26378;DHT22;14078;50.974;6.786;2024-03-22T04:52:54;10.20;99.90
26378;DHT22;14078;50.974;6.786;2024-03-22T04:55:21;10.20;99.90
26378;DHT22;14078;50.974;6.786;2024-03-22T04:57:48;10.20;99.90
26378;DHT22;14078;50.974;6.786;2024-03-22T05:00:16;10.20;99.90
26378;DHT22;14078;50.974;6.786;2024-03-22T05:02:41;10.20;99.90
26378;DHT22;14078;50.974;6.786;2024-03-22T05:05:08;10.20;99.90
26378;DHT22;14078;50.974;6.786;2024-03-22T05:07:35;10.20;99.90
26378;DHT22;14078;50.974;6.786;2024-03-22T05:10:02;10.20;99.90
26378;DHT22;14078;50.974;6.786;2024-03-22T05:12:28;10.30;99.90
26378;DHT22;14078;50.974;6.786;2024-03-22T05:14:56;10.30;99.90
26378;DHT22;14078;50.974;6.786;2024-03-22T05:17:23;10.30;99.90
26378;DHT22;14078;50.974;6.786;2024-03-22T05:19:49;10.30;99.90
26378;DHT22;14078;50.974;6.786;2024-03-22T05:22:15;10.30;99.90
26378;DHT22;14078;50.974;6.786;2024-03-22T05:24:42;10.30;99.90
26378;DHT22;14078;50.974;6.786;2024-03-22T05:27:08;10.30;99.90
26378;DHT22;14078;50.974;6.786;2024-03-22T05:29:34;10.30;99.90
26378;DHT22;14078;50.974;6.786;2024-03-22T05:32:01;10.40;99.90
26378;DHT22;14078;50.974;6.786;2024-03-22T05:34:29;10.40;99.90
26378;DHT22;14078;50.974;6.786;2024-03-22T05:36:54;10.40;99.90
26378;DHT22;14078;50.974;6.786;2024-03-22T05:39:21;10.50;99.90
26378;DHT22;14078;50.974;6.786;2024-03-22T05:41:47;10.60;99.90
26378;DHT22;14078;50.974;6.786;2024-03-22T05:44:13;10.80;99.90
26378;DHT22;14078;50.974;6.786;2024-03-22T05:46:39;10.80;99.90
26378;DHT22;14078;50.974;6.786;2024-03-22T05:49:07;10.80;99.90
26378;DHT22;14078;50.974;6.786;2024-03-22T05:51:33;11.00;99.90
26378;DHT22;14078;50.974;6.786;2024-03-22T05:54:00;11.00;99.90
26378;DHT22;14078;50.974;6.786;2024-03-22T05:56:25;11.00;99.90
26378;DHT22;14078;50.974;6.786;2024-03-22T05:58:52;11.20;98.50
26378;DHT22;14078;50.974;6.786;2024-03-22T06:01:18;11.30;96.70
26378;DHT22;14078;50.974;6.786;2024-03-22T06:03:45;11.30;91.80
26378;DHT22;14078;50.974;6.786;2024-03-22T06:06:12;11.30;93.50
26378;DHT22;14078;50.974;6.786;2024-03-22T06:08:38;11.40;99.90
26378;DHT22;14078;50.974;6.786;2024-03-22T06:11:06;11.60;93.80
26378;DHT22;14078;50.974;6.786;2024-03-22T06:13:33;11.60;55.90
26378;DHT22;14078;50.974;6.786;2024-03-22T06:16:00;11.50;51.60
26378;DHT22;14078;50.974;6.786;2024-03-22T06:18:27;11.50;61.40
26378;DHT22;14078;50.974;6.786;2024-03-22T06:20:52;11.50;84.80
26378;DHT22;14078;50.974;6.786;2024-03-22T06:23:21;11.40;94.30
26378;DHT22;14078;50.974;6.786;2024-03-22T06:25:51;11.40;99.10
26378;DHT22;14078;50.974;6.786;2024-03-22T06:28:18;11.40;99.90
26378;DHT22;14078;50.974;6.786;2024-03-22T06:30:43;11.30;99.90
26378;DHT22;14078;50.974;6.786;2024-03-22T06:33:10;11.30;99.90
26378;DHT22;14078;50.974;6.786;2024-03-22T06:35:36;11.40;99.90
26378;DHT22;14078;50.974;6.786;2024-03-22T06:38:03;11.40;99.90
26378;DHT22;14078;50.974;6.786;2024-03-22T06:40:31;11.40;99.90
26378;DHT22;14078;50.974;6.786;2024-03-22T06:42:57;11.40;99.90
26378;DHT22;14078;50.974;6.786;2024-03-22T06:45:24;11.40;99.90
26378;DHT22;14078;50.974;6.786;2024-03-22T06:47:50;11.50;99.90
26378;DHT22;14078;50.974;6.786;2024-03-22T06:50:16;11.60;99.90
26378;DHT22;14078;50.974;6.786;2024-03-22T06:52:44;11.60;99.90
26378;DHT22;14078;50.974;6.786;2024-03-22T06:55:10;11.70;99.90
26378;DHT22;14078;50.974;6.786;2024-03-22T06:57:38;11.80;99.90
26378;DHT22;14078;50.974;6.786;2024-03-22T07:00:05;11.80;99.90
26378;DHT22;14078;50.974;6.786;2024-03-22T07:02:35;11.80;99.90
26378;DHT22;14078;50.974;6.786;2024-03-22T07:05:01;11.90;99.90
26378;DHT22;14078;50.974;6.786;2024-03-22T07:07:29;12.10;99.90
26378;DHT22;14078;50.974;6.786;2024-03-22T07:09:56;12.30;76.80
26378;DHT22;14078;50.974;6.786;2024-03-22T07:12:22;12.40;51.30
26378;DHT22;14078;50.974;6.786;2024-03-22T07:14:49;12.60;7.50
26378;DHT22;14078;50.974;6.786;2024-03-22T07:17:16;12.90;1.00
26378;DHT22;14078;50.974;6.786;2024-03-22T07:19:42;13.00;1.00
26378;DHT22;14078;50.974;6.786;2024-03-22T07:22:09;13.00;1.00
26378;DHT22;14078;50.974;6.786;2024-03-22T07:24:34;13.20;99.90
26378;DHT22;14078;50.974;6.786;2024-03-22T07:27:01;13.10;1.00
26378;DHT22;14078;50.974;6.786;2024-03-22T07:29:27;13.10;99.90
26378;DHT22;14078;50.974;6.786;2024-03-22T07:31:55;13.20;99.90
26378;DHT22;14078;50.974;6.786;2024-03-22T07:34:21;13.20;99.90
26378;DHT22;14078;50.974;6.786;2024-03-22T07:36:47;13.20;1.00
26378;DHT22;14078;50.974;6.786;2024-03-22T07:39:13;13.30;1.00
26378;DHT22;14078;50.974;6.786;2024-03-22T07:41:40;13.30;1.00
26378;DHT22;14078;50.974;6.786;2024-03-22T07:44:05;13.50;99.90
26378;DHT22;14078;50.974;6.786;2024-03-22T07:46:33;13.60;99.90
26378;DHT22;14078;50.974;6.786;2024-03-22T07:49:00;13.80;1.00
26378;DHT22;14078;50.974;6.786;2024-03-22T07:51:27;13.90;99.90
26378;DHT22;14078;50.974;6.786;2024-03-22T07:53:52;13.80;99.90
26378;DHT22;14078;50.974;6.786;2024-03-22T07:56:19;14.10;99.90
26378;DHT22;14078;50.974;6.786;2024-03-22T07:58:45;14.10;99.90
26378;DHT22;14078;50.974;6.786;2024-03-22T08:01:12;14.10;1.00
26378;DHT22;14078;50.974;6.786;2024-03-22T08:03:38;14.10;1.00
26378;DHT22;14078;50.974;6.786;2024-03-22T08:06:06;14.10;1.00
26378;DHT22;14078;50.974;6.786;2024-03-22T08:08:31;14.10;1.00
26378;DHT22;14078;50.974;6.786;2024-03-22T08:10:58;14.10;99.90
26378;DHT22;14078;50.974;6.786;2024-03-22T08:13:24;14.20;1.00
26378;DHT22;14078;50.974;6.786;2024-03-22T08:15:50;14.20;1.00
26378;DHT22;14078;50.974;6.786;2024-03-22T08:18:16;14.30;99.90
26378;DHT22;14078;50.974;6.786;2024-03-22T08:20:43;14.50;99.90
26378;DHT22;14078;50.974;6.786;2024-03-22T08:23:10;14.40;99.90
26378;DHT22;14078;50.974;6.786;2024-03-22T08:25:37;14.60;99.90
26378;DHT22;14078;50.974;6.786;2024-03-22T08:28:03;14.80;99.90
26378;DHT22;14078;50.974;6.786;2024-03-22T08:30:30;14.80;99.90
26378;DHT22;14078;50.974;6.786;2024-03-22T08:32:56;14.70;99.90
26378;DHT22;14078;50.974;6.786;2024-03-22T08:35:23;14.70;99.90
26378;DHT22;14078;50.974;6.786;2024-03-22T08:37:48;14.70;99.90
26378;DHT22;14078;50.974;6.786;2024-03-22T08:40:16;14.80;99.90
26378;DHT22;14078;50.974;6.786;2024-03-22T08:42:42;14.90;99.90
26378;DHT22;14078;50.974;6.786;2024-03-22T08:45:09;14.90;83.50
26378;DHT22;14078;50.974;6.786;2024-03-22T08:47:35;14.90;99.90
26378;DHT22;14078;50.974;6.786;2024-03-22T08:50:01;14.80;99.90
26378;DHT22;14078;50.974;6.786;2024-03-22T08:52:27;14.90;99.90
26378;DHT22;14078;50.974;6.786;2024-03-22T08:54:55;14.90;99.90
26378;DHT22;14078;50.974;6.786;2024-03-22T08:57:22;15.00;83.10
26378;DHT22;14078;50.974;6.786;2024-03-22T08:59:49;15.00;51.10
26378;DHT22;14078;50.974;6.786;2024-03-22T09:02:15;15.10;66.80
26378;DHT22;14078;50.974;6.786;2024-03-22T09:04:42;15.20;6.30
26378;DHT22;14078;50.974;6.786;2024-03-22T09:07:07;15.20;1.00
26378;DHT22;14078;50.974;6.786;2024-03-22T09:09:34;15.20;14.20
26378;DHT22;14078;50.974;6.786;2024-03-22T09:12:01;15.20;1.00
26378;DHT22;14078;50.974;6.786;2024-03-22T09:14:28;15.20;1.00
26378;DHT22;14078;50.974;6.786;2024-03-22T09:16:54;15.30;1.00
26378;DHT22;14078;50.974;6.786;2024-03-22T09:19:20;15.30;1.00
26378;DHT22;14078;50.974;6.786;2024-03-22T09:21:47;15.40;1.00
26378;DHT22;14078;50.974;6.786;2024-03-22T09:24:13;15.30;1.00
26378;DHT22;14078;50.974;6.786;2024-03-22T09:26:39;15.30;1.00
26378;DHT22;14078;50.974;6.786;2024-03-22T09:29:05;15.30;1.00
26378;DHT22;14078;50.974;6.786;2024-03-22T09:31:33;15.30;1.00
26378;DHT22;14078;50.974;6.786;2024-03-22T09:33:59;15.40;1.00
26378;DHT22;14078;50.974;6.786;2024-03-22T09:36:26;15.50;1.00
26378;DHT22;14078;50.974;6.786;2024-03-22T09:38:52;15.50;1.00
26378;DHT22;14078;50.974;6.786;2024-03-22T09:41:23;15.60;1.00
26378;DHT22;14078;50.974;6.786;2024-03-22T09:43:51;15.70;1.00
26378;DHT22;14078;50.974;6.786;2024-03-22T09:46:19;15.60;1.00
26378;DHT22;14078;50.974;6.786;2024-03-22T09:48:47;15.60;1.00
26378;DHT22;14078;50.974;6.786;2024-03-22T09:51:15;15.40;1.00
26378;DHT22;14078;50.974;6.786;2024-03-22T09:53:43;15.50;1.00
26378;DHT22;14078;50.974;6.786;2024-03-22T09:56:11;15.50;1.00
26378;DHT22;14078;50.974;6.786;2024-03-22T09:58:40;15.60;1.00
26378;DHT22;14078;50.974;6.786;2024-03-22T10:01:06;15.60;1.00
26378;DHT22;14078;50.974;6.786;2024-03-22T10:03:33;15.70;1.00
26378;DHT22;14078;50.974;6.786;2024-03-22T10:06:00;15.70;1.00
26378;DHT22;14078;50.974;6.786;2024-03-22T10:08:27;15.80;1.00
26378;DHT22;14078;50.974;6.786;2024-03-22T10:10:52;15.80;1.00
26378;DHT22;14078;50.974;6.786;2024-03-22T10:13:19;15.80;1.00
26378;DHT22;14078;50.974;6.786;2024-03-22T10:15:46;15.60;1.00
26378;DHT22;14078;50.974;6.786;2024-03-22T10:18:12;15.70;1.00
26378;DHT22;14078;50.974;6.786;2024-03-22T10:20:40;15.70;1.00
26378;DHT22;14078;50.974;6.786;2024-03-22T10:23:08;15.70;1.00
26378;DHT22;14078;50.974;6.786;2024-03-22T10:25:34;15.70;1.00
26378;DHT22;14078;50.974;6.786;2024-03-22T10:28:01;15.80;1.00
26378;DHT22;14078;50.974;6.786;2024-03-22T10:30:28;15.80;1.00
26378;DHT22;14078;50.974;6.786;2024-03-22T10:32:56;15.80;1.00
26378;DHT22;14078;50.974;6.786;2024-03-22T10:35:23;15.80;1.00
26378;DHT22;14078;50.974;6.786;2024-03-22T10:37:51;15.80;1.00
26378;DHT22;14078;50.974;6.786;2024-03-22T10:40:19;15.90;1.00
26378;DHT22;14078;50.974;6.786;2024-03-22T10:42:46;15.80;1.00
26378;DHT22;14078;50.974;6.786;2024-03-22T10:45:12;15.90;1.00
26378;DHT22;14078;50.974;6.786;2024-03-22T10:47:39;15.90;1.00
26378;DHT22;14078;50.974;6.786;2024-03-22T10:50:07;15.90;1.00
26378;DHT22;14078;50.974;6.786;2024-03-22T10:52:37;15.80;1.00
26378;DHT22;14078;50.974;6.786;2024-03-22T10:55:05;15.70;1.00
26378;DHT22;14078;50.974;6.786;2024-03-22T10:57:36;15.80;1.00
26378;DHT22;14078;50.974;6.786;2024-03-22T11:00:03;15.80;1.00
26378;DHT22;14078;50.974;6.786;2024-03-22T11:02:35;15.90;1.00
26378;DHT22;14078;50.974;6.786;2024-03-22T11:05:02;15.80;1.00
26378;DHT22;14078;50.974;6.786;2024-03-22T11:07:29;15.70;1.00
26378;DHT22;14078;50.974;6.786;2024-03-22T11:09:56;15.60;1.00
26378;DHT22;14078;50.974;6.786;2024-03-22T11:12:24;15.60;1.00
26378;DHT22;14078;50.974;6.786;2024-03-22T11:14:54;15.60;1.00
26378;DHT22;14078;50.974;6.786;2024-03-22T11:17:19;15.60;1.00
26378;DHT22;14078;50.974;6.786;2024-03-22T11:19:50;15.60;1.00
26378;DHT22;14078;50.974;6.786;2024-03-22T11:22:16;15.60;1.00
26378;DHT22;14078;50.974;6.786;2024-03-22T11:24:42;15.70;1.00
26378;DHT22;14078;50.974;6.786;2024-03-22T11:27:09;15.70;1.00
26378;DHT22;14078;50.974;6.786;2024-03-22T11:29:37;15.80;1.00
26378;DHT22;14078;50.974;6.786;2024-03-22T11:32:07;15.80;1.00
26378;DHT22;14078;50.974;6.786;2024-03-22T11:34:35;15.80;1.00
26378;DHT22;14078;50.974;6.786;2024-03-22T11:37:00;15.70;1.00
26378;DHT22;14078;50.974;6.786;2024-03-22T11:39:27;15.70;1.00
26378;DHT22;14078;50.974;6.786;2024-03-22T11:41:53;15.70;1.00
26378;DHT22;14078;50.974;6.786;2024-03-22T11:44:21;15.70;1.00
26378;DHT22;14078;50.974;6.786;2024-03-22T11:46:47;15.70;1.00
26378;DHT22;14078;50.974;6.786;2024-03-22T11:49:15;15.80;1.00
26378;DHT22;14078;50.974;6.786;2024-03-22T11:51:42;15.70;1.00
26378;DHT22;14078;50.974;6.786;2024-03-22T11:54:09;15.60;1.00
26378;DHT22;14078;50.974;6.786;2024-03-22T11:56:35;15.70;1.00
26378;DHT22;14078;50.974;6.786;2024-03-22T11:59:02;15.70;1.00
26378;DHT22;14078;50.974;6.786;2024-03-22T12:01:29;15.70;1.00
26378;DHT22;14078;50.974;6.786;2024-03-22T12:03:55;15.70;1.00
26378;DHT22;14078;50.974;6.786;2024-03-22T12:06:22;15.50;1.00
26378;DHT22;14078;50.974;6.786;2024-03-22T12:08:49;15.60;1.00
26378;DHT22;14078;50.974;6.786;2024-03-22T12:11:15;15.60;1.00
26378;DHT22;14078;50.974;6.786;2024-03-22T12:13:41;15.50;1.00
26378;DHT22;14078;50.974;6.786;2024-03-22T12:16:07;15.40;1.00
26378;DHT22;14078;50.974;6.786;2024-03-22T12:18:34;15.50;1.00
26378;DHT22;14078;50.974;6.786;2024-03-22T12:21:00;15.50;1.00
26378;DHT22;14078;50.974;6.786;2024-03-22T12:23:28;15.40;1.00
26378;DHT22;14078;50.974;6.786;2024-03-22T12:25:54;15.60;1.00
26378;DHT22;14078;50.974;6.786;2024-03-22T12:28:21;15.50;1.00
26378;DHT22;14078;50.974;6.786;2024-03-22T12:30:47;15.50;1.00
26378;DHT22;14078;50.974;6.786;2024-03-22T12:33:14;15.50;1.00
26378;DHT22;14078;50.974;6.786;2024-03-22T12:35:40;15.50;1.00
26378;DHT22;14078;50.974;6.786;2024-03-22T12:38:07;15.50;1.00
26378;DHT22;14078;50.974;6.786;2024-03-22T12:40:36;15.60;1.00
26378;DHT22;14078;50.974;6.786;2024-03-22T12:43:04;15.70;1.00
26378;DHT22;14078;50.974;6.786;2024-03-22T12:45:30;15.70;1.00
26378;DHT22;14078;50.974;6.786;2024-03-22T12:47:57;15.70;1.00
26378;DHT22;14078;50.974;6.786;2024-03-22T12:50:24;15.80;1.00
26378;DHT22;14078;50.974;6.786;2024-03-22T12:52:50;15.60;1.00
26378;DHT22;14078;50.974;6.786;2024-03-22T12:55:16;15.70;1.00
26378;DHT22;14078;50.974;6.786;2024-03-22T12:57:45;15.70;1.00
26378;DHT22;14078;50.974;6.786;2024-03-22T13:00:11;15.60;1.00
26378;DHT22;14078;50.974;6.786;2024-03-22T13:02:40;15.50;1.00
26378;DHT22;14078;50.974;6.786;2024-03-22T13:05:07;15.60;1.00
26378;DHT22;14078;50.974;6.786;2024-03-22T13:07:34;15.60;1.00
26378;DHT22;14078;50.974;6.786;2024-03-22T13:10:00;15.60;1.00
26378;DHT22;14078;50.974;6.786;2024-03-22T13:12:26;15.60;1.00
26378;DHT22;14078;50.974;6.786;2024-03-22T13:14:55;15.70;1.00
26378;DHT22;14078;50.974;6.786;2024-03-22T13:17:21;15.90;1.00
26378;DHT22;14078;50.974;6.786;2024-03-22T13:19:49;15.90;1.00
26378;DHT22;14078;50.974;6.786;2024-03-22T13:22:15;15.70;1.00
26378;DHT22;14078;50.974;6.786;2024-03-22T13:24:43;15.70;1.00
26378;DHT22;14078;50.974;6.786;2024-03-22T13:27:09;15.90;1.00
26378;DHT22;14078;50.974;6.786;2024-03-22T13:29:36;16.00;1.00
26378;DHT22;14078;50.974;6.786;2024-03-22T13:32:03;15.90;1.00
26378;DHT22;14078;50.974;6.786;2024-03-22T13:34:32;15.90;1.00
26378;DHT22;14078;50.974;6.786;2024-03-22T13:36:58;15.90;1.00
26378;DHT22;14078;50.974;6.786;2024-03-22T13:39:25;16.00;1.00
26378;DHT22;14078;50.974;6.786;2024-03-22T13:41:50;16.10;1.00
26378;DHT22;14078;50.974;6.786;2024-03-22T13:44:17;16.30;1.00
26378;DHT22;14078;50.974;6.786;2024-03-22T13:46:43;16.50;1.00
26378;DHT22;14078;50.974;6.786;2024-03-22T13:49:15;16.40;1.00
26378;DHT22;14078;50.974;6.786;2024-03-22T13:51:41;16.40;1.00
26378;DHT22;14078;50.974;6.786;2024-03-22T13:54:08;16.60;1.00
26378;DHT22;14078;50.974;6.786;2024-03-22T13:56:33;16.60;1.00
26378;DHT22;14078;50.974;6.786;2024-03-22T13:59:00;16.60;1.00
26378;DHT22;14078;50.974;6.786;2024-03-22T14:01:27;16.40;1.00
26378;DHT22;14078;50.974;6.786;2024-03-22T14:03:53;16.40;1.00
26378;DHT22;14078;50.974;6.786;2024-03-22T14:06:22;16.20;1.00
26378;DHT22;14078;50.974;6.786;2024-03-22T14:08:48;16.30;1.00
26378;DHT22;14078;50.974;6.786;2024-03-22T14:11:14;16.40;1.00
26378;DHT22;14078;50.974;6.786;2024-03-22T14:13:40;16.40;1.00
26378;DHT22;14078;50.974;6.786;2024-03-22T14:16:07;16.40;1.00
26378;DHT22;14078;50.974;6.786;2024-03-22T14:18:33;16.30;1.00
26378;DHT22;14078;50.974;6.786;2024-03-22T14:21:01;16.10;1.00
26378;DHT22;14078;50.974;6.786;2024-03-22T14:23:28;15.90;1.00
26378;DHT22;14078;50.974;6.786;2024-03-22T14:25:55;15.70;1.00
26378;DHT22;14078;50.974;6.786;2024-03-22T14:28:22;15.70;1.00
26378;DHT22;14078;50.974;6.786;2024-03-22T14:30:48;15.60;1.00
26378;DHT22;14078;50.974;6.786;2024-03-22T14:33:14;15.50;1.00
26378;DHT22;14078;50.974;6.786;2024-03-22T14:35:40;15.50;1.00
26378;DHT22;14078;50.974;6.786;2024-03-22T14:38:06;15.50;1.00
26378;DHT22;14078;50.974;6.786;2024-03-22T14:40:34;15.60;1.00
26378;DHT22;14078;50.974;6.786;2024-03-22T14:43:02;15.50;1.00
26378;DHT22;14078;50.974;6.786;2024-03-22T14:45:28;15.50;1.00
26378;DHT22;14078;50.974;6.786;2024-03-22T14:47:54;15.40;1.00
26378;DHT22;14078;50.974;6.786;2024-03-22T14:50:21;15.50;1.00
26378;DHT22;14078;50.974;6.786;2024-03-22T14:52:49;15.50;1.00
26378;DHT22;14078;50.974;6.786;2024-03-22T14:55:15;15.40;1.00
26378;DHT22;14078;50.974;6.786;2024-03-22T14:57:43;15.50;1.00
26378;DHT22;14078;50.974;6.786;2024-03-22T15:00:09;15.50;1.00
26378;DHT22;14078;50.974;6.786;2024-03-22T15:02:38;15.50;1.00
26378;DHT22;14078;50.974;6.786;2024-03-22T15:05:04;15.40;1.00
26378;DHT22;14078;50.974;6.786;2024-03-22T15:07:31;15.30;1.00
26378;DHT22;14078;50.974;6.786;2024-03-22T15:09:56;15.10;1.00
26378;DHT22;14078;50.974;6.786;2024-03-22T15:12:23;15.00;1.00
26378;DHT22;14078;50.974;6.786;2024-03-22T15:14:52;15.00;1.00
26378;DHT22;14078;50.974;6.786;2024-03-22T15:17:19;15.00;1.00
26378;DHT22;14078;50.974;6.786;2024-03-22T15:19:48;14.80;1.00
26378;DHT22;14078;50.974;6.786;2024-03-22T15:22:15;14.70;77.70
26378;DHT22;14078;50.974;6.786;2024-03-22T15:24:43;14.70;99.90
26378;DHT22;14078;50.974;6.786;2024-03-22T15:27:10;14.70;99.90
26378;DHT22;14078;50.974;6.786;2024-03-22T15:29:36;14.60;99.90
26378;DHT22;14078;50.974;6.786;2024-03-22T15:32:06;14.70;99.90
26378;DHT22;14078;50.974;6.786;2024-03-22T15:34:32;14.60;99.90